sensor_id;sensor_type;location;lat;lon;timestamp;temperature;humidity
27619;DHT22;15039;50.830;4.730;2023-01-19T00:00:23;1.70;99.90
27619;DHT22;15039;50.830;4.730;2023-01-19T00:02:49;1.80;99.90
27619;DHT22;15039;50.830;4.730;2023-01-19T00:05:15;1.80;99.90
27619;DHT22;15039;50.830;4.730;2023-01-19T00:07:41;1.80;99.90
27619;DHT22;15039;50.830;4.730;2023-01-19T00:10:08;1.80;99.90
27619;DHT22;15039;50.830;4.730;2023-01-19T00:12:34;1.80;99.90
27619;DHT22;15039;50.830;4.730;2023-01-19T00:14:59;1.70;99.90
27619;DHT22;15039;50.830;4.730;2023-01-19T00:17:25;1.60;99.90
27619;DHT22;15039;50.830;4.730;2023-01-19T00:19:51;1.70;99.90
27619;DHT22;15039;50.830;4.730;2023-01-19T00:22:16;1.70;99.90
27619;DHT22;15039;50.830;4.730;2023-01-19T00:24:42;1.70;99.90
27619;DHT22;15039;50.830;4.730;2023-01-19T00:27:08;1.70;99.90
27619;DHT22;15039;50.830;4.730;2023-01-19T00:29:34;1.70;99.90
27619;DHT22;15039;50.830;4.730;2023-01-19T00:32:01;1.80;99.90
27619;DHT22;15039;50.830;4.730;2023-01-19T00:34:27;1.70;99.90
27619;DHT22;15039;50.830;4.730;2023-01-19T00:37:02;1.70;99.90
27619;DHT22;15039;50.830;4.730;2023-01-19T00:39:27;1.70;99.90
27619;DHT22;15039;50.830;4.730;2023-01-19T00:41:53;1.80;99.90
27619;DHT22;15039;50.830;4.730;2023-01-19T00:44:37;1.80;99.90
27619;DHT22;15039;50.830;4.730;2023-01-19T00:47:03;1.90;99.90
27619;DHT22;15039;50.830;4.730;2023-01-19T00:49:30;1.90;99.90
27619;DHT22;15039;50.830;4.730;2023-01-19T00:51:56;1.90;99.90
27619;DHT22;15039;50.830;4.730;2023-01-19T00:54:21;1.80;99.90
27619;DHT22;15039;50.830;4.730;2023-01-19T00:56:47;1.80;99.90
27619;DHT22;15039;50.830;4.730;2023-01-19T00:59:13;1.80;99.90
27619;DHT22;15039;50.830;4.730;2023-01-19T01:01:38;1.80;99.90
27619;DHT22;15039;50.830;4.730;2023-01-19T01:04:04;1.80;99.90
27619;DHT22;15039;50.830;4.730;2023-01-19T01:06:30;1.80;99.90
27619;DHT22;15039;50.830;4.730;2023-01-19T01:08:55;1.80;99.90
27619;DHT22;15039;50.830;4.730;2023-01-19T01:11:21;1.80;99.90
27619;DHT22;15039;50.830;4.730;2023-01-19T01:13:46;1.80;99.90
27619;DHT22;15039;50.830;4.730;2023-01-19T01:16:14;1.70;99.90
27619;DHT22;15039;50.830;4.730;2023-01-19T01:18:40;1.70;99.90
27619;DHT22;15039;50.830;4.730;2023-01-19T01:21:06;1.70;99.90
27619;DHT22;15039;50.830;4.730;2023-01-19T01:23:33;1.70;99.90
27619;DHT22;15039;50.830;4.730;2023-01-19T01:25:59;1.70;99.90
27619;DHT22;15039;50.830;4.730;2023-01-19T01:28:25;1.70;99.90
27619;DHT22;15039;50.830;4.730;2023-01-19T01:30:55;1.70;99.90
27619;DHT22;15039;50.830;4.730;2023-01-19T01:33:22;1.70;99.90
27619;DHT22;15039;50.830;4.730;2023-01-19T01:35:48;1.70;99.90
27619;DHT22;15039;50.830;4.730;2023-01-19T01:38:15;1.70;99.90
27619;DHT22;15039;50.830;4.730;2023-01-19T01:40:42;1.60;99.90
27619;DHT22;15039;50.830;4.730;2023-01-19T01:43:12;1.60;99.90
27619;DHT22;15039;50.830;4.730;2023-01-19T01:45:39;1.60;99.90
27619;DHT22;15039;50.830;4.730;2023-01-19T01:48:19;1.60;99.90
27619;DHT22;15039;50.830;4.730;2023-01-19T01:50:58;1.60;99.90
27619;DHT22;15039;50.830;4.730;2023-01-19T01:53:45;1.60;99.90
27619;DHT22;15039;50.830;4.730;2023-01-19T01:56:15;1.50;99.90
27619;DHT22;15039;50.830;4.730;2023-01-19T01:58:42;1.50;99.90
27619;DHT22;15039;50.830;4.730;2023-01-19T02:01:09;1.50;99.90
27619;DHT22;15039;50.830;4.730;2023-01-19T02:03:53;1.50;99.90
27619;DHT22;15039;50.830;4.730;2023-01-19T02:06:20;1.50;99.90
27619;DHT22;15039;50.830;4.730;2023-01-19T02:08:53;1.60;99.90
27619;DHT22;15039;50.830;4.730;2023-01-19T02:11:40;1.50;99.90
27619;DHT22;15039;50.830;4.730;2023-01-19T02:14:24;1.60;99.90
27619;DHT22;15039;50.830;4.730;2023-01-19T02:16:50;1.60;99.90
27619;DHT22;15039;50.830;4.730;2023-01-19T02:19:22;1.60;99.90
27619;DHT22;15039;50.830;4.730;2023-01-19T02:22:25;1.60;99.90
27619;DHT22;15039;50.830;4.730;2023-01-19T02:24:56;1.60;99.90
27619;DHT22;15039;50.830;4.730;2023-01-19T02:27:22;1.60;99.90
27619;DHT22;15039;50.830;4.730;2023-01-19T02:29:47;1.60;99.90
27619;DHT22;15039;50.830;4.730;2023-01-19T02:32:13;1.60;99.90
27619;DHT22;15039;50.830;4.730;2023-01-19T02:34:39;1.60;99.90
27619;DHT22;15039;50.830;4.730;2023-01-19T02:37:12;1.60;99.90
27619;DHT22;15039;50.830;4.730;2023-01-19T02:39:42;1.60;99.90
27619;DHT22;15039;50.830;4.730;2023-01-19T02:42:13;1.50;99.90
27619;DHT22;15039;50.830;4.730;2023-01-19T02:44:42;1.50;99.90
27619;DHT22;15039;50.830;4.730;2023-01-19T02:47:08;1.50;99.90
27619;DHT22;15039;50.830;4.730;2023-01-19T02:49:34;1.50;99.90
27619;DHT22;15039;50.830;4.730;2023-01-19T02:52:01;1.50;99.90
27619;DHT22;15039;50.830;4.730;2023-01-19T02:54:39;1.40;99.90
27619;DHT22;15039;50.830;4.730;2023-01-19T02:57:20;1.50;99.90
27619;DHT22;15039;50.830;4.730;2023-01-19T03:00:20;1.50;99.90
27619;DHT22;15039;50.830;4.730;2023-01-19T03:11:02;1.50;99.90
27619;DHT22;15039;50.830;4.730;2023-01-19T03:19:14;1.60;99.90
27619;DHT22;15039;50.830;4.730;2023-01-19T03:21:46;1.60;99.90
27619;DHT22;15039;50.830;4.730;2023-01-19T03:24:13;1.60;99.90
27619;DHT22;15039;50.830;4.730;2023-01-19T03:26:42;1.60;99.90
27619;DHT22;15039;50.830;4.730;2023-01-19T03:29:11;1.60;99.90
27619;DHT22;15039;50.830;4.730;2023-01-19T03:31:40;1.60;99.90
27619;DHT22;15039;50.830;4.730;2023-01-19T03:34:10;1.60;99.90
27619;DHT22;15039;50.830;4.730;2023-01-19T03:36:48;1.70;99.90
27619;DHT22;15039;50.830;4.730;2023-01-19T03:39:21;1.70;99.90
27619;DHT22;15039;50.830;4.730;2023-01-19T03:41:50;1.70;99.90
27619;DHT22;15039;50.830;4.730;2023-01-19T03:44:16;1.80;99.90
27619;DHT22;15039;50.830;4.730;2023-01-19T03:46:44;1.80;99.90
27619;DHT22;15039;50.830;4.730;2023-01-19T03:49:10;1.80;99.90
27619;DHT22;15039;50.830;4.730;2023-01-19T03:51:37;1.80;99.90
27619;DHT22;15039;50.830;4.730;2023-01-19T03:54:08;1.80;99.90
27619;DHT22;15039;50.830;4.730;2023-01-19T03:56:34;1.80;99.90
27619;DHT22;15039;50.830;4.730;2023-01-19T03:58:59;1.80;99.90
27619;DHT22;15039;50.830;4.730;2023-01-19T04:01:25;1.80;99.90
27619;DHT22;15039;50.830;4.730;2023-01-19T04:03:51;1.80;99.90
27619;DHT22;15039;50.830;4.730;2023-01-19T04:06:18;1.80;99.90
27619;DHT22;15039;50.830;4.730;2023-01-19T04:08:50;1.90;99.90
27619;DHT22;15039;50.830;4.730;2023-01-19T04:11:16;1.90;99.90
27619;DHT22;15039;50.830;4.730;2023-01-19T04:13:41;2.00;99.90
27619;DHT22;15039;50.830;4.730;2023-01-19T04:16:09;1.90;99.90
27619;DHT22;15039;50.830;4.730;2023-01-19T04:18:34;1.90;99.90
27619;DHT22;15039;50.830;4.730;2023-01-19T04:21:02;1.90;99.90
27619;DHT22;15039;50.830;4.730;2023-01-19T04:23:28;1.90;99.90
27619;DHT22;15039;50.830;4.730;2023-01-19T04:26:01;1.80;99.90
27619;DHT22;15039;50.830;4.730;2023-01-19T04:28:27;1.80;99.90
27619;DHT22;15039;50.830;4.730;2023-01-19T04:30:53;1.90;99.90
27619;DHT22;15039;50.830;4.730;2023-01-19T04:33:20;1.80;99.90
27619;DHT22;15039;50.830;4.730;2023-01-19T04:35:47;1.80;99.90
27619;DHT22;15039;50.830;4.730;2023-01-19T04:38:13;1.90;99.90
27619;DHT22;15039;50.830;4.730;2023-01-19T04:40:39;1.80;99.90
27619;DHT22;15039;50.830;4.730;2023-01-19T04:43:05;1.90;99.90
27619;DHT22;15039;50.830;4.730;2023-01-19T04:45:30;1.80;99.90
27619;DHT22;15039;50.830;4.730;2023-01-19T04:47:56;1.80;99.90
27619;DHT22;15039;50.830;4.730;2023-01-19T04:50:22;1.80;99.90
27619;DHT22;15039;50.830;4.730;2023-01-19T04:52:47;1.80;99.90
27619;DHT22;15039;50.830;4.730;2023-01-19T04:55:13;1.80;99.90
27619;DHT22;15039;50.830;4.730;2023-01-19T04:57:40;1.80;99.90
27619;DHT22;15039;50.830;4.730;2023-01-19T05:00:06;1.80;99.90
27619;DHT22;15039;50.830;4.730;2023-01-19T05:02:32;1.70;99.90
27619;DHT22;15039;50.830;4.730;2023-01-19T05:04:58;1.70;99.90
27619;DHT22;15039;50.830;4.730;2023-01-19T05:07:24;1.80;99.90
27619;DHT22;15039;50.830;4.730;2023-01-19T05:09:49;1.80;99.90
27619;DHT22;15039;50.830;4.730;2023-01-19T05:12:15;1.70;99.90
27619;DHT22;15039;50.830;4.730;2023-01-19T05:14:41;1.70;99.90
27619;DHT22;15039;50.830;4.730;2023-01-19T05:17:07;1.60;99.90
27619;DHT22;15039;50.830;4.730;2023-01-19T05:19:33;1.60;99.90
27619;DHT22;15039;50.830;4.730;2023-01-19T05:22:01;1.60;99.90
27619;DHT22;15039;50.830;4.730;2023-01-19T05:24:27;1.60;99.90
27619;DHT22;15039;50.830;4.730;2023-01-19T05:26:53;1.60;99.90
27619;DHT22;15039;50.830;4.730;2023-01-19T05:29:19;1.60;99.90
27619;DHT22;15039;50.830;4.730;2023-01-19T05:31:44;1.60;99.90
27619;DHT22;15039;50.830;4.730;2023-01-19T05:34:10;1.60;99.90
27619;DHT22;15039;50.830;4.730;2023-01-19T05:36:36;1.60;99.90
27619;DHT22;15039;50.830;4.730;2023-01-19T05:39:02;1.60;99.90
27619;DHT22;15039;50.830;4.730;2023-01-19T05:41:27;1.60;99.90
27619;DHT22;15039;50.830;4.730;2023-01-19T05:43:53;1.60;99.90
27619;DHT22;15039;50.830;4.730;2023-01-19T05:46:19;1.60;99.90
27619;DHT22;15039;50.830;4.730;2023-01-19T05:48:44;1.60;99.90
27619;DHT22;15039;50.830;4.730;2023-01-19T05:51:10;1.70;99.90
27619;DHT22;15039;50.830;4.730;2023-01-19T05:53:35;1.60;99.90
27619;DHT22;15039;50.830;4.730;2023-01-19T05:56:05;1.60;99.90
27619;DHT22;15039;50.830;4.730;2023-01-19T05:58:32;1.60;99.90
27619;DHT22;15039;50.830;4.730;2023-01-19T06:01:03;1.60;99.90
27619;DHT22;15039;50.830;4.730;2023-01-19T06:03:31;1.60;99.90
27619;DHT22;15039;50.830;4.730;2023-01-19T06:05:58;1.60;99.90
27619;DHT22;15039;50.830;4.730;2023-01-19T06:08:23;1.60;99.90
27619;DHT22;15039;50.830;4.730;2023-01-19T06:10:49;1.60;99.90
27619;DHT22;15039;50.830;4.730;2023-01-19T06:13:15;1.60;99.90
27619;DHT22;15039;50.830;4.730;2023-01-19T06:15:41;1.50;99.90
27619;DHT22;15039;50.830;4.730;2023-01-19T06:18:08;1.50;99.90
27619;DHT22;15039;50.830;4.730;2023-01-19T06:20:34;1.50;99.90
27619;DHT22;15039;50.830;4.730;2023-01-19T06:23:00;1.50;99.90
27619;DHT22;15039;50.830;4.730;2023-01-19T06:25:26;1.60;99.90
27619;DHT22;15039;50.830;4.730;2023-01-19T06:27:52;1.50;99.90
27619;DHT22;15039;50.830;4.730;2023-01-19T06:30:17;1.50;99.90
27619;DHT22;15039;50.830;4.730;2023-01-19T06:32:43;1.50;99.90
27619;DHT22;15039;50.830;4.730;2023-01-19T06:35:09;1.50;99.90
27619;DHT22;15039;50.830;4.730;2023-01-19T06:37:35;1.50;99.90
27619;DHT22;15039;50.830;4.730;2023-01-19T06:40:01;1.50;99.90
27619;DHT22;15039;50.830;4.730;2023-01-19T06:42:27;1.50;99.90
27619;DHT22;15039;50.830;4.730;2023-01-19T06:44:52;1.50;99.90
27619;DHT22;15039;50.830;4.730;2023-01-19T06:47:18;1.50;99.90
27619;DHT22;15039;50.830;4.730;2023-01-19T06:49:44;1.50;99.90
27619;DHT22;15039;50.830;4.730;2023-01-19T06:52:10;1.40;99.90
27619;DHT22;15039;50.830;4.730;2023-01-19T06:54:36;1.50;99.90
27619;DHT22;15039;50.830;4.730;2023-01-19T06:57:03;1.50;99.90
27619;DHT22;15039;50.830;4.730;2023-01-19T06:59:28;1.40;99.90
27619;DHT22;15039;50.830;4.730;2023-01-19T07:01:54;1.50;99.90
27619;DHT22;15039;50.830;4.730;2023-01-19T07:04:21;1.50;99.90
27619;DHT22;15039;50.830;4.730;2023-01-19T07:06:46;1.50;99.90
27619;DHT22;15039;50.830;4.730;2023-01-19T07:09:12;1.50;99.90
27619;DHT22;15039;50.830;4.730;2023-01-19T07:11:38;1.40;99.90
27619;DHT22;15039;50.830;4.730;2023-01-19T07:14:04;1.40;99.90
27619;DHT22;15039;50.830;4.730;2023-01-19T07:16:30;1.50;99.90
27619;DHT22;15039;50.830;4.730;2023-01-19T07:18:55;1.60;99.90
27619;DHT22;15039;50.830;4.730;2023-01-19T07:21:21;1.60;99.90
27619;DHT22;15039;50.830;4.730;2023-01-19T07:23:51;1.70;99.90
27619;DHT22;15039;50.830;4.730;2023-01-19T07:26:17;1.70;99.90
27619;DHT22;15039;50.830;4.730;2023-01-19T07:28:46;1.70;99.90
27619;DHT22;15039;50.830;4.730;2023-01-19T07:31:12;1.80;99.90
27619;DHT22;15039;50.830;4.730;2023-01-19T07:33:37;1.80;99.90
27619;DHT22;15039;50.830;4.730;2023-01-19T07:36:03;1.80;99.90
27619;DHT22;15039;50.830;4.730;2023-01-19T07:38:28;1.70;99.90
27619;DHT22;15039;50.830;4.730;2023-01-19T07:41:02;1.70;99.90
27619;DHT22;15039;50.830;4.730;2023-01-19T07:43:28;1.80;99.90
27619;DHT22;15039;50.830;4.730;2023-01-19T07:46:03;1.80;99.90
27619;DHT22;15039;50.830;4.730;2023-01-19T07:48:29;1.80;99.90
27619;DHT22;15039;50.830;4.730;2023-01-19T07:51:03;1.80;99.90
27619;DHT22;15039;50.830;4.730;2023-01-19T07:53:37;1.80;99.90
27619;DHT22;15039;50.830;4.730;2023-01-19T07:56:02;1.80;99.90
27619;DHT22;15039;50.830;4.730;2023-01-19T07:58:31;1.90;99.90
27619;DHT22;15039;50.830;4.730;2023-01-19T08:00:57;1.90;99.90
27619;DHT22;15039;50.830;4.730;2023-01-19T08:03:23;1.80;99.90
27619;DHT22;15039;50.830;4.730;2023-01-19T08:05:50;1.90;99.90
27619;DHT22;15039;50.830;4.730;2023-01-19T08:08:16;1.90;99.90
27619;DHT22;15039;50.830;4.730;2023-01-19T08:10:42;2.00;99.90
27619;DHT22;15039;50.830;4.730;2023-01-19T08:13:08;2.00;99.90
27619;DHT22;15039;50.830;4.730;2023-01-19T08:15:33;1.90;99.90
27619;DHT22;15039;50.830;4.730;2023-01-19T08:18:03;2.00;99.90
27619;DHT22;15039;50.830;4.730;2023-01-19T08:20:34;2.00;99.90
27619;DHT22;15039;50.830;4.730;2023-01-19T08:23:00;2.00;99.90
27619;DHT22;15039;50.830;4.730;2023-01-19T08:25:39;2.00;99.90
27619;DHT22;15039;50.830;4.730;2023-01-19T08:28:07;2.10;99.90
27619;DHT22;15039;50.830;4.730;2023-01-19T08:30:34;2.00;99.90
27619;DHT22;15039;50.830;4.730;2023-01-19T08:33:00;2.00;99.90
27619;DHT22;15039;50.830;4.730;2023-01-19T08:35:33;2.00;99.90
27619;DHT22;15039;50.830;4.730;2023-01-19T08:37:59;2.00;99.90
27619;DHT22;15039;50.830;4.730;2023-01-19T08:40:32;2.10;99.90
27619;DHT22;15039;50.830;4.730;2023-01-19T08:43:00;2.20;99.90
27619;DHT22;15039;50.830;4.730;2023-01-19T08:45:28;2.20;99.90
27619;DHT22;15039;50.830;4.730;2023-01-19T08:47:55;2.30;99.90
27619;DHT22;15039;50.830;4.730;2023-01-19T08:50:23;2.40;99.90
27619;DHT22;15039;50.830;4.730;2023-01-19T08:52:49;2.40;99.90
27619;DHT22;15039;50.830;4.730;2023-01-19T08:55:15;2.50;99.90
27619;DHT22;15039;50.830;4.730;2023-01-19T08:57:41;2.60;99.90
27619;DHT22;15039;50.830;4.730;2023-01-19T09:00:07;2.60;99.90
27619;DHT22;15039;50.830;4.730;2023-01-19T09:02:33;2.70;99.90
27619;DHT22;15039;50.830;4.730;2023-01-19T09:04:59;2.70;99.90
27619;DHT22;15039;50.830;4.730;2023-01-19T09:07:24;2.70;99.90
27619;DHT22;15039;50.830;4.730;2023-01-19T09:09:50;2.80;99.90
27619;DHT22;15039;50.830;4.730;2023-01-19T09:12:16;2.70;99.90
27619;DHT22;15039;50.830;4.730;2023-01-19T09:14:41;2.70;99.90
27619;DHT22;15039;50.830;4.730;2023-01-19T09:17:07;2.70;99.90
27619;DHT22;15039;50.830;4.730;2023-01-19T09:19:32;2.70;99.90
27619;DHT22;15039;50.830;4.730;2023-01-19T09:21:58;2.70;99.90
27619;DHT22;15039;50.830;4.730;2023-01-19T09:24:24;2.80;99.90
27619;DHT22;15039;50.830;4.730;2023-01-19T09:26:50;2.80;99.90
27619;DHT22;15039;50.830;4.730;2023-01-19T09:29:15;2.80;99.90
27619;DHT22;15039;50.830;4.730;2023-01-19T09:31:41;2.80;99.90
27619;DHT22;15039;50.830;4.730;2023-01-19T09:34:08;2.80;99.90
27619;DHT22;15039;50.830;4.730;2023-01-19T09:36:35;2.90;99.90
27619;DHT22;15039;50.830;4.730;2023-01-19T09:39:02;3.00;99.90
27619;DHT22;15039;50.830;4.730;2023-01-19T09:41:28;3.00;99.90
27619;DHT22;15039;50.830;4.730;2023-01-19T09:43:59;3.10;99.90
27619;DHT22;15039;50.830;4.730;2023-01-19T09:46:39;3.00;99.90
27619;DHT22;15039;50.830;4.730;2023-01-19T09:49:47;3.00;99.90
27619;DHT22;15039;50.830;4.730;2023-01-19T09:52:09;3.10;99.90
27619;DHT22;15039;50.830;4.730;2023-01-19T09:57:13;3.20;99.90
27619;DHT22;15039;50.830;4.730;2023-01-19T09:59:40;3.10;99.90
27619;DHT22;15039;50.830;4.730;2023-01-19T10:05:19;3.20;99.90
27619;DHT22;15039;50.830;4.730;2023-01-19T10:10:53;3.10;99.90
27619;DHT22;15039;50.830;4.730;2023-01-19T10:18:46;3.20;99.90
27619;DHT22;15039;50.830;4.730;2023-01-19T10:21:22;3.10;99.90
27619;DHT22;15039;50.830;4.730;2023-01-19T10:24:12;3.10;99.90
27619;DHT22;15039;50.830;4.730;2023-01-19T10:26:44;3.10;99.90
27619;DHT22;15039;50.830;4.730;2023-01-19T10:29:30;3.20;99.90
27619;DHT22;15039;50.830;4.730;2023-01-19T10:32:15;3.20;99.90
27619;DHT22;15039;50.830;4.730;2023-01-19T10:34:42;3.30;99.90
27619;DHT22;15039;50.830;4.730;2023-01-19T10:39:51;3.40;99.90
27619;DHT22;15039;50.830;4.730;2023-01-19T10:42:17;3.30;99.90
27619;DHT22;15039;50.830;4.730;2023-01-19T10:44:44;3.40;99.90
27619;DHT22;15039;50.830;4.730;2023-01-19T10:47:16;3.30;99.90
27619;DHT22;15039;50.830;4.730;2023-01-19T10:49:43;3.30;99.90
27619;DHT22;15039;50.830;4.730;2023-01-19T10:52:33;3.40;99.90
27619;DHT22;15039;50.830;4.730;2023-01-19T10:55:01;3.40;99.90
27619;DHT22;15039;50.830;4.730;2023-01-19T10:57:30;3.30;99.90
27619;DHT22;15039;50.830;4.730;2023-01-19T10:59:57;3.30;99.90
27619;DHT22;15039;50.830;4.730;2023-01-19T11:02:30;3.30;99.90
27619;DHT22;15039;50.830;4.730;2023-01-19T11:05:01;3.30;99.90
27619;DHT22;15039;50.830;4.730;2023-01-19T11:07:43;3.40;99.90
27619;DHT22;15039;50.830;4.730;2023-01-19T11:12:42;3.50;99.90
27619;DHT22;15039;50.830;4.730;2023-01-19T11:17:47;3.50;99.90
27619;DHT22;15039;50.830;4.730;2023-01-19T11:20:22;3.60;99.90
27619;DHT22;15039;50.830;4.730;2023-01-19T11:23:17;3.70;99.90
27619;DHT22;15039;50.830;4.730;2023-01-19T11:25:49;3.70;99.90
27619;DHT22;15039;50.830;4.730;2023-01-19T11:28:41;3.90;99.90
27619;DHT22;15039;50.830;4.730;2023-01-19T11:36:21;3.90;99.90
27619;DHT22;15039;50.830;4.730;2023-01-19T11:38:52;3.90;99.90
27619;DHT22;15039;50.830;4.730;2023-01-19T11:43:52;4.30;99.90
27619;DHT22;15039;50.830;4.730;2023-01-19T11:46:20;4.40;99.90
27619;DHT22;15039;50.830;4.730;2023-01-19T11:49:01;4.60;99.90
27619;DHT22;15039;50.830;4.730;2023-01-19T11:51:33;4.70;99.90
27619;DHT22;15039;50.830;4.730;2023-01-19T11:54:01;4.90;99.90
27619;DHT22;15039;50.830;4.730;2023-01-19T11:56:29;4.80;99.90
27619;DHT22;15039;50.830;4.730;2023-01-19T11:58:55;4.80;99.90
27619;DHT22;15039;50.830;4.730;2023-01-19T12:01:31;4.70;99.90
27619;DHT22;15039;50.830;4.730;2023-01-19T12:04:21;4.80;99.90
27619;DHT22;15039;50.830;4.730;2023-01-19T12:06:52;4.80;99.90
27619;DHT22;15039;50.830;4.730;2023-01-19T12:09:23;4.80;99.90
27619;DHT22;15039;50.830;4.730;2023-01-19T12:12:10;4.70;99.90
27619;DHT22;15039;50.830;4.730;2023-01-19T12:14:46;4.60;99.90
27619;DHT22;15039;50.830;4.730;2023-01-19T12:17:27;4.50;99.90
27619;DHT22;15039;50.830;4.730;2023-01-19T12:28:33;4.50;99.90
27619;DHT22;15039;50.830;4.730;2023-01-19T12:31:00;4.50;99.90
27619;DHT22;15039;50.830;4.730;2023-01-19T12:33:31;4.50;99.90
27619;DHT22;15039;50.830;4.730;2023-01-19T12:39:19;4.60;99.90
27619;DHT22;15039;50.830;4.730;2023-01-19T12:41:45;4.70;99.90
27619;DHT22;15039;50.830;4.730;2023-01-19T12:46:41;4.70;99.90
27619;DHT22;15039;50.830;4.730;2023-01-19T12:49:31;4.80;99.90
27619;DHT22;15039;50.830;4.730;2023-01-19T12:57:27;4.70;99.90
27619;DHT22;15039;50.830;4.730;2023-01-19T12:59:57;4.70;99.90
27619;DHT22;15039;50.830;4.730;2023-01-19T13:13:33;5.00;99.90
27619;DHT22;15039;50.830;4.730;2023-01-19T13:21:38;4.90;99.90
27619;DHT22;15039;50.830;4.730;2023-01-19T13:24:09;5.00;99.90
27619;DHT22;15039;50.830;4.730;2023-01-19T13:26:37;5.00;99.90
27619;DHT22;15039;50.830;4.730;2023-01-19T13:31:34;5.30;99.90
27619;DHT22;15039;50.830;4.730;2023-01-19T13:34:02;5.30;99.90
27619;DHT22;15039;50.830;4.730;2023-01-19T13:36:36;5.40;99.90
27619;DHT22;15039;50.830;4.730;2023-01-19T13:39:14;5.60;99.90
27619;DHT22;15039;50.830;4.730;2023-01-19T13:41:41;5.60;99.90
27619;DHT22;15039;50.830;4.730;2023-01-19T13:44:32;5.50;99.90
27619;DHT22;15039;50.830;4.730;2023-01-19T13:47:02;5.60;99.90
27619;DHT22;15039;50.830;4.730;2023-01-19T13:49:34;5.50;99.90
27619;DHT22;15039;50.830;4.730;2023-01-19T13:52:05;5.60;99.90
27619;DHT22;15039;50.830;4.730;2023-01-19T13:54:30;5.70;99.90
27619;DHT22;15039;50.830;4.730;2023-01-19T13:56:56;5.60;99.90
27619;DHT22;15039;50.830;4.730;2023-01-19T13:59:21;5.60;99.90
27619;DHT22;15039;50.830;4.730;2023-01-19T14:01:47;5.60;99.90
27619;DHT22;15039;50.830;4.730;2023-01-19T14:04:31;5.50;99.90
27619;DHT22;15039;50.830;4.730;2023-01-19T14:07:02;5.60;99.90
27619;DHT22;15039;50.830;4.730;2023-01-19T14:09:29;5.50;99.90
27619;DHT22;15039;50.830;4.730;2023-01-19T14:14:37;5.50;99.90
27619;DHT22;15039;50.830;4.730;2023-01-19T14:17:03;5.40;99.90
27619;DHT22;15039;50.830;4.730;2023-01-19T14:19:29;5.20;99.90
27619;DHT22;15039;50.830;4.730;2023-01-19T14:22:11;5.20;99.90
27619;DHT22;15039;50.830;4.730;2023-01-19T14:24:36;5.20;99.90
27619;DHT22;15039;50.830;4.730;2023-01-19T14:27:19;5.00;99.90
27619;DHT22;15039;50.830;4.730;2023-01-19T14:29:46;4.90;99.90
27619;DHT22;15039;50.830;4.730;2023-01-19T14:32:16;5.00;99.90
27619;DHT22;15039;50.830;4.730;2023-01-19T14:37:22;5.10;99.90
27619;DHT22;15039;50.830;4.730;2023-01-19T14:39:55;5.10;99.90
27619;DHT22;15039;50.830;4.730;2023-01-19T14:42:37;4.90;99.90
27619;DHT22;15039;50.830;4.730;2023-01-19T14:45:11;4.90;99.90
27619;DHT22;15039;50.830;4.730;2023-01-19T14:47:40;4.90;99.90
27619;DHT22;15039;50.830;4.730;2023-01-19T14:50:33;5.00;99.90
27619;DHT22;15039;50.830;4.730;2023-01-19T14:53:02;5.10;99.90
27619;DHT22;15039;50.830;4.730;2023-01-19T14:55:34;5.10;99.90
27619;DHT22;15039;50.830;4.730;2023-01-19T14:58:01;5.10;99.90
27619;DHT22;15039;50.830;4.730;2023-01-19T15:00:26;5.20;99.90
27619;DHT22;15039;50.830;4.730;2023-01-19T15:02:52;5.10;99.90
27619;DHT22;15039;50.830;4.730;2023-01-19T15:05:18;5.10;99.90
27619;DHT22;15039;50.830;4.730;2023-01-19T15:07:45;5.00;99.90
27619;DHT22;15039;50.830;4.730;2023-01-19T15:10:21;5.00;99.90
27619;DHT22;15039;50.830;4.730;2023-01-19T15:12:49;5.00;99.90
27619;DHT22;15039;50.830;4.730;2023-01-19T15:15:37;4.90;99.90
27619;DHT22;15039;50.830;4.730;2023-01-19T15:18:03;5.00;99.90
27619;DHT22;15039;50.830;4.730;2023-01-19T15:20:30;5.00;99.90
27619;DHT22;15039;50.830;4.730;2023-01-19T15:22:56;4.90;99.90
27619;DHT22;15039;50.830;4.730;2023-01-19T15:25:23;4.90;99.90
27619;DHT22;15039;50.830;4.730;2023-01-19T15:28:14;4.90;99.90
27619;DHT22;15039;50.830;4.730;2023-01-19T15:30:40;4.70;99.90
27619;DHT22;15039;50.830;4.730;2023-01-19T15:33:07;4.70;99.90
27619;DHT22;15039;50.830;4.730;2023-01-19T15:35:33;4.70;99.90
27619;DHT22;15039;50.830;4.730;2023-01-19T15:37:59;4.60;99.90
27619;DHT22;15039;50.830;4.730;2023-01-19T15:40:25;4.50;99.90
27619;DHT22;15039;50.830;4.730;2023-01-19T15:42:51;4.50;99.90
27619;DHT22;15039;50.830;4.730;2023-01-19T15:45:47;4.50;99.90
27619;DHT22;15039;50.830;4.730;2023-01-19T15:48:14;4.40;99.90
27619;DHT22;15039;50.830;4.730;2023-01-19T15:50:41;4.30;99.90
27619;DHT22;15039;50.830;4.730;2023-01-19T15:53:15;4.20;99.90
27619;DHT22;15039;50.830;4.730;2023-01-19T15:55:42;4.20;99.90
27619;DHT22;15039;50.830;4.730;2023-01-19T15:58:07;4.00;99.90
27619;DHT22;15039;50.830;4.730;2023-01-19T16:00:34;4.00;99.90
27619;DHT22;15039;50.830;4.730;2023-01-19T16:03:01;3.90;99.90
27619;DHT22;15039;50.830;4.730;2023-01-19T16:05:27;3.80;99.90
27619;DHT22;15039;50.830;4.730;2023-01-19T16:07:53;3.70;99.90
27619;DHT22;15039;50.830;4.730;2023-01-19T16:10:19;3.70;99.90
27619;DHT22;15039;50.830;4.730;2023-01-19T16:12:44;3.70;99.90
27619;DHT22;15039;50.830;4.730;2023-01-19T16:15:12;3.70;99.90
27619;DHT22;15039;50.830;4.730;2023-01-19T16:17:38;3.60;99.90
27619;DHT22;15039;50.830;4.730;2023-01-19T16:20:04;3.50;99.90
27619;DHT22;15039;50.830;4.730;2023-01-19T16:22:30;3.50;99.90
27619;DHT22;15039;50.830;4.730;2023-01-19T16:24:56;3.40;99.90
27619;DHT22;15039;50.830;4.730;2023-01-19T16:27:22;3.30;99.90
27619;DHT22;15039;50.830;4.730;2023-01-19T16:29:48;3.30;99.90
27619;DHT22;15039;50.830;4.730;2023-01-19T16:32:14;3.30;99.90
27619;DHT22;15039;50.830;4.730;2023-01-19T16:34:39;3.30;99.90
27619;DHT22;15039;50.830;4.730;2023-01-19T16:37:05;3.20;99.90
27619;DHT22;15039;50.830;4.730;2023-01-19T16:39:31;3.20;99.90
27619;DHT22;15039;50.830;4.730;2023-01-19T16:41:56;3.10;99.90
27619;DHT22;15039;50.830;4.730;2023-01-19T16:44:22;3.10;99.90
27619;DHT22;15039;50.830;4.730;2023-01-19T16:46:48;3.00;99.90
27619;DHT22;15039;50.830;4.730;2023-01-19T16:49:25;3.10;99.90
27619;DHT22;15039;50.830;4.730;2023-01-19T16:51:51;3.00;99.90
27619;DHT22;15039;50.830;4.730;2023-01-19T16:54:20;2.90;99.90
27619;DHT22;15039;50.830;4.730;2023-01-19T16:56:47;3.00;99.90
27619;DHT22;15039;50.830;4.730;2023-01-19T16:59:15;3.00;99.90
27619;DHT22;15039;50.830;4.730;2023-01-19T17:01:41;2.90;99.90
27619;DHT22;15039;50.830;4.730;2023-01-19T17:04:10;2.90;99.90
27619;DHT22;15039;50.830;4.730;2023-01-19T17:06:36;2.90;99.90
27619;DHT22;15039;50.830;4.730;2023-01-19T17:09:02;2.90;99.90
27619;DHT22;15039;50.830;4.730;2023-01-19T17:11:30;2.80;99.90
27619;DHT22;15039;50.830;4.730;2023-01-19T17:14:11;2.70;99.90
27619;DHT22;15039;50.830;4.730;2023-01-19T17:16:37;2.70;99.90
27619;DHT22;15039;50.830;4.730;2023-01-19T17:19:04;2.70;99.90
27619;DHT22;15039;50.830;4.730;2023-01-19T17:21:30;2.70;99.90
27619;DHT22;15039;50.830;4.730;2023-01-19T17:23:57;2.70;99.90